Aérodrome :
LOGIN :

S'inscrire | Disclaimer

   EN    FR    IT 

 










Légende :    VFR   VFR Marginal   IFR   IFR Intensif   IFR Très Intensif
Visi : 
Plafond : 
>= 8 km
>= 3000ft
5 à 8 km
1000 à 3000 ft
1500m à 5 km
500 à 1000 ft
800 à 1500m
200 à 500 ft
< 800m
< 200 ft
Symboles :   Orages  Brouillard  Fortes neiges  Fortes précipitations  Vent > 20 kt
SIGMETs :   Divers  Orages  Givrage  Turbulence  Onde Orograph.  Cendres Volcan.







- Altitude de l'aérodrome : 297 ft
- Code IATA : UIP
- Voir les cartes d'approche


LFRQ - Quimper Pluguffan

DERNIER METAR :
  • 181830Z AUTO 23007KT 9999 FEW011/// SCT050/// BKN130/// ///TCU 09/08 Q1006 TEMPO SHRA

METARs EXPIRÉS :
  • 181800Z AUTO 23009KT 9999 BKN022/// BKN094/// BKN140/// ///TCU 09/08 Q1006 TEMPO SHRA
  • 181730Z AUTO 24007KT 9999 BKN024 BKN029 BKN044 09/08 Q1006 TEMPO SHRA BKN018TCU
  • 181700Z AUTO 23005KT 9999 FEW030 SCT037 OVC110 09/08 Q1005 TEMPO SHRA BKN015TCU
  • 181630Z AUTO 24007KT 9999 SCT014 BKN045 BKN074 09/08 Q1005 TEMPO SHRA BKN015TCU
  • 181600Z AUTO 25007KT 9999 -RA FEW017/// OVC064/// ///TCU 09/08 Q1004 TEMPO SHRA SCT020

TAF TAF LFRQ
Valide du 18 à 18h jusqu'au 19 à 18h UTC


181700Z 1818/1918 25008KT 9999 SCT014 BKN045 BKN074
TEMPO 1818/1918 22013G25KT SHRA BKN018TCU
PROB30
TEMPO 1900/1906 TSRA SCT018CB
BECMG 1915/1918 25013G26KT
Pas de NOTAMs connus pour ce terrain.



MET'MAP, la Météo Aéronautique d'un coup d'oeil ! - Copyright ORBIFLY Décembre 2007 - Disclaimer

ORBIFLY MET'MAP TEAM :

Programmation & Développement : Alexandra Zaïnal
Conception & Développement : Baudouin d'Aumeries
Co-Programmation & Développement : Marc-Olivier Méhu
Soutien technique & logistique : Manuel Goepfert

Contact : metmap@orbifly.com




SOURCES & CREDITS :

   NOAA